Time;durP1;ratioP1;P1;durP2;ratioP2;P2;SDS_P1;SDS_P2;PMS_P1;PMS_P2;Temp;Humidity;BMP_temperature;BMP_pressure;BME280_temperature;BME280_humidity;BME280_pressure;Samples;Min_cycle;Max_cycle;Signal;HPM_P1;HPM_P2
2021/04/21 00:01:14;;;;;;;14.68;10.30;;;6.60;99.90;;;;;;5013370;28;20029;-82
2021/04/21 00:03:41;;;;;;;16.83;10.38;;;6.70;99.90;;;;;;5013402;28;20470;-82
2021/04/21 00:06:07;;;;;;;18.60;11.35;;;6.70;99.90;;;;;;5013300;28;20065;-82
2021/04/21 00:08:36;;;;;;;16.02;10.38;;;6.90;99.90;;;;;;5011760;28;20030;-82
2021/04/21 00:11:03;;;;;;;17.65;10.93;;;6.80;99.90;;;;;;5013402;28;20029;-82
2021/04/21 00:13:29;;;;;;;15.90;9.85;;;6.80;99.90;;;;;;5016605;28;20370;-82
2021/04/21 00:15:56;;;;;;;15.77;10.63;;;6.80;99.90;;;;;;5015317;28;20022;-82
2021/04/21 00:18:22;;;;;;;14.73;9.85;;;6.70;99.90;;;;;;5015108;28;20037;-82
2021/04/21 00:20:58;;;;;;;13.68;9.98;;;6.70;99.90;;;;;;5016748;28;20047;-82
2021/04/21 00:23:25;;;;;;;12.63;9.27;;;6.90;99.90;;;;;;5016372;28;20030;-82
2021/04/21 00:25:53;;;;;;;15.02;9.70;;;6.90;99.90;;;;;;5016375;28;20026;-82
2021/04/21 00:28:22;;;;;;;15.00;9.88;;;6.90;99.90;;;;;;5016599;28;20474;-82
2021/04/21 00:30:48;;;;;;;19.33;11.25;;;6.90;99.90;;;;;;5014984;28;20030;-82
2021/04/21 00:33:17;;;;;;;18.73;10.88;;;6.80;99.90;;;;;;5016225;28;20395;-82
2021/04/21 00:35:45;;;;;;;15.05;9.65;;;6.80;99.90;;;;;;5016472;28;20080;-82
2021/04/21 00:38:16;;;;;;;13.23;9.55;;;6.80;99.90;;;;;;5016272;28;20032;-82
2021/04/21 00:40:45;;;;;;;13.27;9.55;;;6.70;99.90;;;;;;5014881;28;20540;-82
2021/04/21 00:43:22;;;;;;;13.00;9.52;;;6.70;99.90;;;;;;5014598;28;20466;-82
2021/04/21 00:45:54;;;;;;;14.07;9.02;;;7.00;99.90;;;;;;5016035;28;20054;-82
2021/04/21 00:48:42;;;;;;;16.70;9.40;;;7.10;99.90;;;;;;5014735;28;20056;-82
2021/04/21 00:51:15;;;;;;;15.30;9.68;;;7.10;99.90;;;;;;5014712;28;20026;-82
2021/04/21 00:53:48;;;;;;;12.85;9.30;;;7.20;99.90;;;;;;5014493;28;20034;-82
2021/04/21 00:56:44;;;;;;;16.55;9.93;;;7.10;99.90;;;;;;5015844;28;20473;-82
2021/04/21 00:59:25;;;;;;;16.33;9.68;;;7.10;99.90;;;;;;5014558;28;20120;-82
2021/04/21 01:01:54;;;;;;;14.50;9.52;;;7.10;99.90;;;;;;5014525;28;20148;-82
2021/04/21 01:04:21;;;;;;;15.10;9.40;;;6.90;99.90;;;;;;5016213;28;20485;-82
2021/04/21 01:06:47;;;;;;;18.52;9.40;;;6.70;99.90;;;;;;5015631;28;20477;-82
2021/04/21 01:09:16;;;;;;;16.63;10.90;;;6.70;99.90;;;;;;5014310;28;20029;-82
2021/04/21 01:12:00;;;;;;;16.15;9.98;;;6.60;99.90;;;;;;5015518;28;20416;-82
2021/04/21 01:14:30;;;;;;;14.05;9.70;;;6.50;99.90;;;;;;5015755;28;20429;-82
2021/04/21 01:17:10;;;;;;;15.27;10.23;;;6.50;99.90;;;;;;5015273;28;20040;-82
2021/04/21 01:19:56;;;;;;;16.45;9.63;;;6.60;99.90;;;;;;5014663;28;20471;-82
2021/04/21 01:22:42;;;;;;;14.40;10.60;;;6.60;99.90;;;;;;5013713;28;20026;-82
2021/04/21 01:25:19;;;;;;;14.95;9.73;;;6.60;99.90;;;;;;5014749;28;20038;-82
2021/04/21 01:27:51;;;;;;;15.27;10.75;;;6.60;99.90;;;;;;5015248;28;20029;-82
2021/04/21 01:30:19;;;;;;;17.48;10.50;;;6.20;99.90;;;;;;5013909;28;20037;-82
2021/04/21 01:32:49;;;;;;;12.82;9.45;;;6.20;99.90;;;;;;5013853;28;20030;-82
2021/04/21 01:35:19;;;;;;;13.15;8.80;;;6.30;99.90;;;;;;5015038;28;20079;-82
2021/04/21 01:37:47;;;;;;;17.23;10.07;;;6.50;99.90;;;;;;5015207;28;20030;-82
2021/04/21 01:40:20;;;;;;;15.75;9.90;;;6.40;99.90;;;;;;5013666;28;20022;-82
2021/04/21 01:42:51;;;;;;;15.93;10.77;;;6.40;99.90;;;;;;5016599;28;20469;-82
2021/04/21 01:45:28;;;;;;;15.98;10.65;;;6.40;99.90;;;;;;5017183;28;20031;-82
2021/04/21 01:47:59;;;;;;;17.05;10.65;;;6.40;99.90;;;;;;5034862;28;20076;-82
2021/04/21 01:50:25;;;;;;;14.27;9.95;;;6.30;99.90;;;;;;5034536;28;20045;-82
2021/04/21 01:53:10;;;;;;;14.52;9.35;;;6.40;99.90;;;;;;5034512;28;20032;-82
2021/04/21 01:56:02;;;;;;;16.15;10.07;;;6.60;99.90;;;;;;5016778;28;20026;-82
2021/04/21 01:58:49;;;;;;;18.10;10.68;;;6.60;99.90;;;;;;5003540;28;20404;-82
2021/04/21 02:01:44;;;;;;;14.35;9.45;;;6.40;99.90;;;;;;5016622;28;20033;-82
2021/04/21 02:04:44;;;;;;;17.73;10.77;;;6.40;99.90;;;;;;5008053;28;20073;-82
2021/04/21 02:07:31;;;;;;;15.20;9.52;;;6.30;99.90;;;;;;5034269;28;20098;-82
2021/04/21 02:10:11;;;;;;;15.43;10.32;;;6.20;99.90;;;;;;5016473;28;20386;-82
2021/04/21 02:12:48;;;;;;;16.58;10.40;;;6.30;99.90;;;;;;5034656;28;20098;-82
2021/04/21 02:15:21;;;;;;;14.93;9.32;;;6.20;99.90;;;;;;5016363;28;20021;-82
2021/04/21 02:18:18;;;;;;;15.17;9.47;;;6.20;99.90;;;;;;5033995;28;20069;-82
2021/04/21 02:21:09;;;;;;;17.08;9.25;;;6.40;99.90;;;;;;5000057;28;20112;-82
2021/04/21 02:23:42;;;;;;;15.48;10.25;;;6.50;99.90;;;;;;5033888;28;20091;-82
2021/04/21 02:26:44;;;;;;;12.05;8.95;;;6.50;99.90;;;;;;5016144;28;20029;-82
2021/04/21 02:29:24;;;;;;;14.90;9.07;;;6.50;99.90;;;;;;5033829;28;20101;-82
2021/04/21 02:32:11;;;;;;;15.20;10.10;;;6.60;99.90;;;;;;5016956;28;20427;-82
2021/04/21 02:34:49;;;;;;;14.95;10.40;;;6.40;99.90;;;;;;5033590;28;20064;-82
2021/04/21 02:37:47;;;;;;;14.75;10.05;;;6.20;99.90;;;;;;5033961;28;20028;-82
2021/04/21 02:40:48;;;;;;;14.73;10.45;;;6.20;99.90;;;;;;5033980;28;20025;-82
2021/04/21 02:43:29;;;;;;;14.75;10.23;;;6.20;99.90;;;;;;5033476;28;20037;-82
2021/04/21 02:46:21;;;;;;;16.73;9.55;;;6.30;99.90;;;;;;5015893;28;20017;-82
2021/04/21 02:49:04;;;;;;;17.83;10.13;;;6.40;99.90;;;;;;5033586;28;20021;-82
2021/04/21 02:52:06;;;;;;;14.82;9.98;;;6.30;99.90;;;;;;5033542;28;20032;-82
2021/04/21 02:55:33;;;;;;;13.73;9.90;;;6.40;99.90;;;;;;5011037;28;20397;-82
2021/04/21 02:58:13;;;;;;;17.52;10.35;;;6.40;99.90;;;;;;4934104;29;20611;-82
2021/04/21 03:01:02;;;;;;;14.45;10.02;;;6.30;99.90;;;;;;4934278;29;20561;-82
2021/04/21 03:03:59;;;;;;;16.15;10.30;;;6.50;99.90;;;;;;4993762;28;20033;-82
2021/04/21 03:06:29;;;;;;;14.00;10.38;;;6.40;99.90;;;;;;5015659;28;20026;-82
2021/04/21 03:09:04;;;;;;;14.38;9.40;;;6.30;99.90;;;;;;5015656;28;20539;-82
2021/04/21 03:11:31;;;;;;;14.60;10.20;;;6.00;99.90;;;;;;5033362;28;20022;-82
2021/04/21 03:14:16;;;;;;;15.93;10.13;;;5.90;99.90;;;;;;5015539;28;20033;-82
2021/04/21 03:16:52;;;;;;;13.32;9.65;;;5.90;99.90;;;;;;5033207;28;20029;-82
2021/04/21 03:19:22;;;;;;;13.63;9.23;;;6.10;99.90;;;;;;5015488;28;20021;-82
2021/04/21 03:21:54;;;;;;;13.48;9.52;;;6.20;99.90;;;;;;5015387;28;20097;-82
2021/04/21 03:24:33;;;;;;;14.48;10.27;;;6.30;99.90;;;;;;5015493;28;20075;-82
2021/04/21 03:27:05;;;;;;;13.00;9.02;;;6.10;99.90;;;;;;5033439;28;20018;-82
2021/04/21 03:29:40;;;;;;;14.27;9.93;;;6.10;99.90;;;;;;5015372;28;20026;-82
2021/04/21 03:32:10;;;;;;;15.73;10.55;;;5.60;99.90;;;;;;5033040;28;20025;-82
2021/04/21 03:34:37;;;;;;;13.05;9.88;;;5.70;99.90;;;;;;5015412;28;20036;-82
2021/04/21 03:37:28;;;;;;;15.00;10.18;;;5.80;99.90;;;;;;5032979;28;20487;-82
2021/04/21 03:39:56;;;;;;;14.23;10.25;;;5.90;99.90;;;;;;5032974;28;20026;-82
2021/04/21 03:42:21;;;;;;;16.73;10.18;;;5.90;99.90;;;;;;5015308;28;20032;-82
2021/04/21 03:44:48;;;;;;;16.27;10.05;;;6.10;99.90;;;;;;5032813;28;20401;-82
2021/04/21 03:47:14;;;;;;;12.93;8.93;;;6.00;99.90;;;;;;5017939;28;20172;-82
2021/04/21 03:49:42;;;;;;;16.20;10.20;;;6.10;99.90;;;;;;5036804;28;20071;-82
2021/04/21 03:52:11;;;;;;;16.40;9.85;;;5.90;99.90;;;;;;5037042;28;20121;-82
2021/04/21 03:54:39;;;;;;;15.63;10.18;;;5.80;99.90;;;;;;5036993;28;20025;-82
2021/04/21 03:57:07;;;;;;;14.00;9.60;;;6.00;99.90;;;;;;5018837;28;20030;-81
2021/04/21 03:59:34;;;;;;;14.95;10.18;;;6.20;99.90;;;;;;5018878;28;20033;-82
2021/04/21 04:02:06;;;;;;;16.05;10.27;;;6.20;99.90;;;;;;5036567;28;20022;-82
2021/04/21 04:04:37;;;;;;;15.15;10.57;;;6.20;99.90;;;;;;5036592;28;20026;-82
2021/04/21 04:07:11;;;;;;;15.45;9.60;;;6.20;99.90;;;;;;5018809;28;20025;-82
2021/04/21 04:09:41;;;;;;;13.73;9.80;;;6.10;99.90;;;;;;5018766;28;20545;-82
2021/04/21 04:12:11;;;;;;;15.85;10.07;;;5.90;99.90;;;;;;5018703;28;20030;-82
2021/04/21 04:14:39;;;;;;;13.90;9.90;;;6.00;99.90;;;;;;5018527;28;20029;-82
2021/04/21 04:17:06;;;;;;;12.85;9.63;;;6.00;99.90;;;;;;5018423;28;20025;-82
2021/04/21 04:19:37;;;;;;;13.18;9.15;;;6.00;99.90;;;;;;5018565;28;20038;-83
2021/04/21 04:22:02;;;;;;;12.98;9.55;;;6.10;99.90;;;;;;5036285;28;20021;-83
2021/04/21 04:24:35;;;;;;;14.60;10.10;;;6.30;99.90;;;;;;5036453;28;20088;-82
2021/04/21 04:27:03;;;;;;;13.50;8.82;;;6.20;99.90;;;;;;5018402;28;20032;-82
2021/04/21 04:29:31;;;;;;;13.88;10.23;;;6.00;99.90;;;;;;5035978;28;20021;-82
2021/04/21 04:31:59;;;;;;;13.25;9.82;;;6.10;99.90;;;;;;5036007;28;20029;-82
2021/04/21 04:34:29;;;;;;;12.60;9.75;;;6.00;99.90;;;;;;5018256;28;20040;-82
2021/04/21 04:36:55;;;;;;;13.43;9.32;;;6.00;99.90;;;;;;5036193;28;20499;-83
2021/04/21 04:39:22;;;;;;;19.60;10.63;;;6.00;99.90;;;;;;5035809;28;20025;-82
2021/04/21 04:41:48;;;;;;;12.95;9.77;;;6.00;99.90;;;;;;5035832;28;20025;-83
2021/04/21 04:44:14;;;;;;;13.88;9.98;;;6.10;99.90;;;;;;5035568;28;20381;-83
2021/04/21 04:46:46;;;;;;;14.95;9.25;;;6.10;99.90;;;;;;5017954;28;20047;-82
2021/04/21 04:49:15;;;;;;;26.27;15.75;;;6.30;99.90;;;;;;5018011;28;20072;-82
2021/04/21 04:51:46;;;;;;;12.65;9.63;;;6.10;99.90;;;;;;5035946;28;20382;-82
2021/04/21 04:54:14;;;;;;;15.77;11.18;;;6.20;99.90;;;;;;5017827;28;20531;-82
2021/04/21 04:56:45;;;;;;;18.77;11.25;;;6.00;99.90;;;;;;5035462;28;20021;-82
2021/04/21 04:59:13;;;;;;;14.02;10.02;;;5.90;99.90;;;;;;5034502;28;20024;-83
2021/04/21 05:01:41;;;;;;;16.92;10.93;;;6.00;99.90;;;;;;5017705;28;20400;-82
2021/04/21 05:04:13;;;;;;;15.85;10.02;;;5.90;99.90;;;;;;5035432;28;20022;-82
2021/04/21 05:06:48;;;;;;;13.10;10.13;;;5.90;99.90;;;;;;5017652;28;20492;-82
2021/04/21 05:09:17;;;;;;;14.07;10.45;;;6.20;99.90;;;;;;5017548;28;20029;-82
2021/04/21 05:11:45;;;;;;;12.68;9.63;;;6.20;99.90;;;;;;5017549;28;20028;-82
2021/04/21 05:14:16;;;;;;;14.73;10.02;;;6.30;99.90;;;;;;5017554;28;20026;-82
2021/04/21 05:17:00;;;;;;;14.90;10.80;;;6.30;99.90;;;;;;5035171;28;20022;-83
2021/04/21 05:19:44;;;;;;;18.13;11.57;;;6.10;99.90;;;;;;5035145;28;20032;-83
2021/04/21 05:22:27;;;;;;;17.88;10.95;;;5.90;99.90;;;;;;5035136;28;20025;-82
2021/04/21 05:25:37;;;;;;;17.88;10.90;;;6.00;99.90;;;;;;5017254;28;20033;-82
2021/04/21 05:28:39;;;;;;;16.77;10.82;;;6.10;99.90;;;;;;4935713;29;20126;-83
2021/04/21 05:31:37;;;;;;;19.25;12.48;;;6.20;99.90;;;;;;4919713;29;20504;-83
2021/04/21 05:34:14;;;;;;;15.35;10.38;;;6.30;99.90;;;;;;5009645;28;20607;-82
2021/04/21 05:37:11;;;;;;;17.35;10.90;;;6.30;99.90;;;;;;5017020;28;20099;-82
2021/04/21 05:39:42;;;;;;;16.35;11.18;;;6.40;99.90;;;;;;5034670;28;20073;-82
2021/04/21 05:42:11;;;;;;;16.50;10.70;;;6.40;99.90;;;;;;5034669;28;20022;-82
2021/04/21 05:45:09;;;;;;;15.18;11.32;;;6.40;99.90;;;;;;5016819;28;20045;-82
2021/04/21 05:47:53;;;;;;;14.77;10.85;;;6.40;99.90;;;;;;5016863;28;20428;-82
2021/04/21 05:51:18;;;;;;;17.77;12.20;;;6.40;99.90;;;;;;5034886;28;20045;-82
2021/04/21 05:54:21;;;;;;;16.75;10.77;;;6.40;99.90;;;;;;4947078;28;20048;-82
2021/04/21 05:57:05;;;;;;;17.38;11.48;;;6.70;99.90;;;;;;5016561;28;20427;-82
2021/04/21 05:59:57;;;;;;;25.05;12.43;;;6.60;99.90;;;;;;5034514;28;20048;-83
2021/04/21 06:02:26;;;;;;;17.15;12.50;;;6.50;99.90;;;;;;5036939;28;20030;-83
2021/04/21 06:05:07;;;;;;;22.65;12.52;;;6.40;99.90;;;;;;5034284;28;20086;-83
2021/04/21 06:07:33;;;;;;;25.48;12.75;;;6.50;99.90;;;;;;5016426;28;20049;-83
2021/04/21 06:09:59;;;;;;;20.30;13.48;;;6.50;99.90;;;;;;5034111;28;20120;-82
2021/04/21 06:12:25;;;;;;;20.90;13.55;;;6.50;99.90;;;;;;5034087;28;20499;-83
2021/04/21 06:14:52;;;;;;;19.05;12.48;;;6.50;99.90;;;;;;5016419;28;20025;-83
2021/04/21 06:17:27;;;;;;;19.27;13.52;;;6.60;99.90;;;;;;5016275;28;20028;-83
2021/04/21 06:19:53;;;;;;;22.30;13.63;;;6.80;99.90;;;;;;5034295;28;20092;-82
2021/04/21 06:22:30;;;;;;;17.55;11.88;;;6.90;99.90;;;;;;5016289;28;20021;-83
2021/04/21 06:25:15;;;;;;;18.83;12.50;;;7.10;99.90;;;;;;5016727;28;20393;-83
2021/04/21 06:27:41;;;;;;;18.73;12.68;;;7.10;99.90;;;;;;5016104;28;20029;-83
2021/04/21 06:30:08;;;;;;;19.23;13.02;;;7.10;99.90;;;;;;5034089;28;20079;-83
2021/04/21 06:32:35;;;;;;;19.85;12.60;;;7.00;99.90;;;;;;5033722;28;20082;-83
2021/04/21 06:35:08;;;;;;;21.65;13.65;;;7.00;99.90;;;;;;5033752;28;20424;-83
2021/04/21 06:37:35;;;;;;;22.08;12.48;;;7.10;99.90;;;;;;5033652;28;20021;-83
2021/04/21 06:40:05;;;;;;;21.40;13.15;;;7.20;99.90;;;;;;5015933;28;20481;-83
2021/04/21 06:42:30;;;;;;;19.98;14.27;;;7.40;99.90;;;;;;5033579;28;20049;-83
2021/04/21 06:44:57;;;;;;;21.52;14.70;;;7.40;99.90;;;;;;5015721;28;20130;-83
2021/04/21 06:47:25;;;;;;;25.55;14.55;;;7.50;99.90;;;;;;5033553;28;20040;-83
2021/04/21 06:50:02;;;;;;;20.88;13.85;;;7.60;99.90;;;;;;5015879;28;20378;-83
2021/04/21 06:52:35;;;;;;;19.27;12.18;;;7.80;99.90;;;;;;5033515;28;20029;-83
2021/04/21 06:55:05;;;;;;;20.33;13.20;;;7.90;99.90;;;;;;5033709;28;20022;-83
2021/04/21 06:57:31;;;;;;;17.75;12.07;;;8.10;99.90;;;;;;5015622;28;20043;-83
2021/04/21 07:00:05;;;;;;;23.38;14.63;;;8.20;99.90;;;;;;5033345;28;20076;-83
2021/04/21 07:02:41;;;;;;;26.33;13.70;;;8.30;99.90;;;;;;5015604;28;20112;-83
2021/04/21 07:05:43;;;;;;;22.45;14.70;;;8.50;99.90;;;;;;5015695;28;20026;-83
2021/04/21 07:08:10;;;;;;;23.52;15.68;;;8.60;99.90;;;;;;5033725;28;20024;-82
2021/04/21 07:10:57;;;;;;;23.00;14.48;;;8.70;99.90;;;;;;5015243;28;20026;-83
2021/04/21 07:13:36;;;;;;;21.13;14.27;;;8.90;99.90;;;;;;5015470;28;20028;-83
2021/04/21 07:16:27;;;;;;;23.73;13.95;;;9.20;99.90;;;;;;5033306;28;20021;-83
2021/04/21 07:18:54;;;;;;;22.63;15.57;;;9.80;99.90;;;;;;5015448;28;20378;-83
2021/04/21 07:21:22;;;;;;;21.13;14.35;;;10.20;99.90;;;;;;5016730;28;20022;-83
2021/04/21 07:23:53;;;;;;;23.05;15.07;;;10.50;99.90;;;;;;5019501;28;20021;-83
2021/04/21 07:26:47;;;;;;;21.95;13.50;;;10.60;99.90;;;;;;5003778;28;20021;-83
2021/04/21 07:29:24;;;;;;;23.70;16.13;;;10.70;99.90;;;;;;5036634;28;20035;-83
2021/04/21 07:31:51;;;;;;;16.70;12.02;;;10.90;99.90;;;;;;5019389;28;20112;-83
2021/04/21 07:34:34;;;;;;;27.42;15.13;;;11.10;99.90;;;;;;5019388;28;20029;-83
2021/04/21 07:37:01;;;;;;;21.73;15.13;;;11.30;99.90;;;;;;5037030;28;20029;-83
2021/04/21 07:39:39;;;;;;;24.40;15.30;;;11.40;99.90;;;;;;5036986;28;20052;-83
2021/04/21 07:42:18;;;;;;;24.17;14.57;;;11.70;99.90;;;;;;5019284;28;20021;-84
2021/04/21 07:44:52;;;;;;;25.23;13.82;;;11.80;99.90;;;;;;5019073;28;20440;-83
2021/04/21 07:47:19;;;;;;;26.02;15.65;;;12.00;99.90;;;;;;5037199;28;20136;-84
2021/04/21 07:49:56;;;;;;;20.75;13.48;;;12.10;99.90;;;;;;5019079;28;20068;-84
2021/04/21 07:52:23;;;;;;;20.95;13.52;;;12.20;99.90;;;;;;5036806;28;20030;-84
2021/04/21 07:55:03;;;;;;;20.73;12.60;;;12.40;99.90;;;;;;5036992;28;20441;-83
2021/04/21 07:57:29;;;;;;;23.40;13.75;;;12.50;99.90;;;;;;5036935;28;20029;-83
2021/04/21 07:59:55;;;;;;;20.23;13.05;;;12.70;99.90;;;;;;5018885;28;20436;-83
2021/04/21 08:02:22;;;;;;;18.02;13.20;;;12.70;99.90;;;;;;5037223;28;20021;-83
2021/04/21 08:04:50;;;;;;;19.33;14.30;;;12.80;99.90;;;;;;5018833;28;20025;-83
2021/04/21 08:07:40;;;;;;;18.92;12.43;;;12.90;99.90;;;;;;5018764;28;20033;-83
2021/04/21 08:10:34;;;;;;;19.83;14.25;;;13.10;99.90;;;;;;5036767;28;20022;-83
2021/04/21 08:13:01;;;;;;;24.20;14.10;;;13.10;99.90;;;;;;5018728;28;20102;-84
2021/04/21 08:15:31;;;;;;;21.65;13.27;;;13.20;99.90;;;;;;5036322;28;20370;-83
2021/04/21 08:18:09;;;;;;;18.75;11.90;;;13.30;99.90;;;;;;5018744;28;20032;-84
2021/04/21 08:20:39;;;;;;;19.50;13.98;;;13.50;99.90;;;;;;5036361;28;20079;-83
2021/04/21 08:23:07;;;;;;;17.40;12.43;;;13.60;99.90;;;;;;5018481;28;20086;-83
2021/04/21 08:25:33;;;;;;;15.85;11.05;;;13.60;99.90;;;;;;5036093;28;20021;-83
2021/04/21 08:28:00;;;;;;;15.88;11.05;;;13.70;99.90;;;;;;5018330;28;20037;-83
2021/04/21 08:30:27;;;;;;;16.65;10.63;;;13.80;99.90;;;;;;5018292;28;20160;-83
2021/04/21 08:32:53;;;;;;;18.50;11.75;;;14.00;99.90;;;;;;5018117;28;20211;-83
2021/04/21 08:35:19;;;;;;;14.90;10.13;;;14.70;99.90;;;;;;5018423;28;20028;-82
2021/04/21 08:37:45;;;;;;;16.25;11.18;;;14.20;99.90;;;;;;5018053;28;20025;-84
2021/04/21 08:40:13;;;;;;;22.00;12.90;;;14.30;99.90;;;;;;5036060;28;20029;-82
2021/04/21 08:42:41;;;;;;;17.20;11.18;;;14.40;99.90;;;;;;5036206;28;20049;-83
2021/04/21 08:45:09;;;;;;;17.58;12.02;;;14.50;99.90;;;;;;5036217;28;20143;-83
2021/04/21 08:47:38;;;;;;;16.15;11.40;;;14.60;99.90;;;;;;5035728;28;20104;-83
2021/04/21 08:50:05;;;;;;;20.52;12.85;;;14.60;99.90;;;;;;5035589;28;20025;-83
2021/04/21 08:52:42;;;;;;;20.27;12.20;;;14.70;99.90;;;;;;5035657;28;20022;-83
2021/04/21 08:55:12;;;;;;;17.35;10.98;;;14.90;99.90;;;;;;5018107;28;20075;-82
2021/04/21 08:57:39;;;;;;;18.42;12.05;;;14.90;99.90;;;;;;5018252;28;20044;-82
2021/04/21 09:00:06;;;;;;;16.40;11.25;;;14.90;99.40;;;;;;5017737;28;20022;-82
2021/04/21 09:02:33;;;;;;;15.63;10.75;;;15.00;99.90;;;;;;5035699;28;20108;-83
2021/04/21 09:04:59;;;;;;;16.65;12.23;;;15.10;98.70;;;;;;5035456;28;20049;-83
2021/04/21 09:07:24;;;;;;;15.50;10.38;;;15.10;98.30;;;;;;5017663;28;20076;-83
2021/04/21 09:09:50;;;;;;;16.33;10.73;;;15.20;98.90;;;;;;5035324;28;20416;-83
2021/04/21 09:12:16;;;;;;;16.33;11.50;;;15.40;97.80;;;;;;5035238;28;20026;-83
2021/04/21 09:14:42;;;;;;;16.02;10.25;;;15.60;99.00;;;;;;5017416;28;20500;-83
2021/04/21 09:17:08;;;;;;;17.35;12.27;;;15.80;97.70;;;;;;5035632;28;20057;-83
2021/04/21 09:19:36;;;;;;;19.77;10.70;;;15.70;95.70;;;;;;5017769;28;20485;-83
2021/04/21 09:22:07;;;;;;;19.27;11.85;;;15.70;95.00;;;;;;5035055;28;20020;-83
2021/04/21 09:24:37;;;;;;;11.93;9.00;;;15.60;96.00;;;;;;5017363;28;20092;-83
2021/04/21 09:27:34;;;;;;;15.35;10.43;;;15.80;96.20;;;;;;5034936;28;20473;-83
2021/04/21 09:30:20;;;;;;;14.93;10.25;;;15.90;93.70;;;;;;5017382;28;20025;-83
2021/04/21 09:32:52;;;;;;;12.02;8.13;;;16.20;93.30;;;;;;5035072;28;20029;-82
2021/04/21 09:35:30;;;;;;;12.20;9.13;;;16.20;94.20;;;;;;5035301;28;20101;-83
2021/04/21 09:38:14;;;;;;;11.77;9.18;;;16.40;91.20;;;;;;5016773;28;20029;-83
2021/04/21 09:40:46;;;;;;;15.32;9.10;;;16.50;91.40;;;;;;5035039;28;20424;-84
2021/04/21 09:43:20;;;;;;;14.07;8.82;;;16.70;92.90;;;;;;5016574;28;20084;-84
2021/04/21 09:45:48;;;;;;;12.30;8.57;;;16.80;91.20;;;;;;5016388;28;20045;-83
2021/04/21 09:48:19;;;;;;;13.05;7.70;;;16.80;90.30;;;;;;5034565;28;20404;-84
2021/04/21 09:51:04;;;;;;;9.82;7.53;;;16.90;91.70;;;;;;5016753;28;20021;-84
2021/04/21 09:53:38;;;;;;;12.88;9.38;;;17.20;88.50;;;;;;5034520;28;20112;-84
2021/04/21 09:56:16;;;;;;;13.85;9.35;;;17.20;88.50;;;;;;5016784;28;20033;-85
2021/04/21 09:58:46;;;;;;;13.85;9.20;;;17.30;86.60;;;;;;5016624;28;20120;-84
2021/04/21 10:01:27;;;;;;;12.40;8.95;;;17.40;87.90;;;;;;5016654;28;20108;-83
2021/04/21 10:04:05;;;;;;;11.38;8.52;;;17.50;82.60;;;;;;5016748;28;20051;-83
2021/04/21 10:06:31;;;;;;;15.60;9.90;;;18.00;85.00;;;;;;5035496;28;20495;-83
2021/04/21 10:08:57;;;;;;;11.40;8.68;;;18.00;79.20;;;;;;5017178;28;20476;-83
2021/04/21 10:11:23;;;;;;;13.60;8.90;;;17.90;82.60;;;;;;5034687;28;20028;-83
2021/04/21 10:13:53;;;;;;;9.98;7.63;;;18.30;79.10;;;;;;5016808;28;20473;-83
2021/04/21 10:16:19;;;;;;;14.52;8.38;;;18.30;83.10;;;;;;5034483;28;20021;-83
2021/04/21 10:18:46;;;;;;;12.15;8.77;;;18.10;76.30;;;;;;5016483;28;20026;-83
2021/04/21 10:21:13;;;;;;;10.27;8.02;;;18.50;76.60;;;;;;5016109;28;20017;-84
2021/04/21 10:23:40;;;;;;;11.43;7.75;;;18.60;77.40;;;;;;5016203;28;20025;-85
2021/04/21 10:26:08;;;;;;;12.85;8.32;;;18.20;74.70;;;;;;5016114;28;20481;-83
2021/04/21 10:28:37;;;;;;;10.73;8.10;;;17.30;78.50;;;;;;5033812;28;20057;-83
2021/04/21 10:31:05;;;;;;;10.55;7.53;;;16.90;77.10;;;;;;5016143;28;20036;-82
2021/04/21 10:33:32;;;;;;;9.02;6.93;;;16.70;74.60;;;;;;5016014;28;20120;-83
2021/04/21 10:35:58;;;;;;;12.88;7.43;;;16.60;77.30;;;;;;5016007;28;20025;-83
2021/04/21 10:38:26;;;;;;;8.90;6.82;;;16.40;79.70;;;;;;5033473;28;20036;-83
2021/04/21 10:41:20;;;;;;;10.85;7.20;;;16.30;72.90;;;;;;5033613;28;20025;-83
2021/04/21 10:43:47;;;;;;;10.75;7.72;;;16.40;79.20;;;;;;5012319;28;20073;-83
2021/04/21 10:46:12;;;;;;;13.07;7.25;;;16.40;79.30;;;;;;5012870;28;20070;-83
2021/04/21 10:48:46;;;;;;;13.05;8.50;;;16.30;74.10;;;;;;5013791;28;20057;-83
2021/04/21 10:51:42;;;;;;;12.90;9.38;;;16.10;79.10;;;;;;5013837;28;20419;-83
2021/04/21 10:54:09;;;;;;;14.35;9.90;;;15.90;80.80;;;;;;4992999;28;20489;-83
2021/04/21 10:56:37;;;;;;;14.98;10.38;;;15.90;81.60;;;;;;5013832;28;20048;-83
2021/04/21 10:59:04;;;;;;;14.43;10.30;;;15.90;82.90;;;;;;5012232;28;20116;-83
2021/04/21 11:01:39;;;;;;;16.30;10.50;;;15.80;83.80;;;;;;5012424;28;20026;-83
2021/04/21 11:04:06;;;;;;;16.10;9.63;;;15.80;83.00;;;;;;5012327;28;20029;-83
2021/04/21 11:06:41;;;;;;;14.27;9.05;;;15.70;81.20;;;;;;5013579;28;20545;-82
2021/04/21 11:09:11;;;;;;;14.85;9.23;;;15.70;81.50;;;;;;5014581;28;20482;-83
2021/04/21 11:11:43;;;;;;;14.35;10.00;;;15.60;82.70;;;;;;5013572;28;20098;-83
2021/04/21 11:14:11;;;;;;;15.57;10.30;;;15.50;83.90;;;;;;5013572;28;20030;-83
2021/04/21 11:16:39;;;;;;;18.40;11.80;;;15.50;85.10;;;;;;5013478;28;20048;-83
2021/04/21 11:19:25;;;;;;;19.63;11.88;;;15.40;88.60;;;;;;5013405;28;20033;-83
2021/04/21 11:22:17;;;;;;;13.55;10.30;;;15.50;87.40;;;;;;5013594;28;20026;-83
2021/04/21 11:24:44;;;;;;;16.27;11.80;;;15.60;87.20;;;;;;5012105;28;20092;-83
2021/04/21 11:27:49;;;;;;;19.15;11.43;;;15.60;87.30;;;;;;5012083;28;20150;-83
2021/04/21 11:30:32;;;;;;;16.15;11.68;;;15.70;89.90;;;;;;4972308;28;20027;-82
2021/04/21 11:32:58;;;;;;;18.60;12.48;;;15.60;89.50;;;;;;4972190;28;20042;-83
2021/04/21 11:35:27;;;;;;;17.63;11.98;;;15.70;88.00;;;;;;4995734;28;20038;-83
2021/04/21 11:37:53;;;;;;;17.35;11.85;;;15.70;87.80;;;;;;5013203;28;20390;-83
2021/04/21 11:40:30;;;;;;;16.77;11.57;;;15.70;88.80;;;;;;5012022;28;20029;-83
2021/04/21 11:43:16;;;;;;;18.83;10.88;;;15.80;89.20;;;;;;5011899;28;20492;-83
2021/04/21 11:45:43;;;;;;;17.67;10.55;;;15.70;90.20;;;;;;5011791;28;20046;-83
2021/04/21 11:48:09;;;;;;;21.08;12.10;;;15.70;90.10;;;;;;5013225;28;20049;-83
2021/04/21 11:50:45;;;;;;;15.57;11.70;;;15.70;89.20;;;;;;5013252;28;20022;-83
2021/04/21 11:53:17;;;;;;;12.60;9.73;;;15.70;88.70;;;;;;5013509;28;20084;-83
2021/04/21 11:58:41;;;;;;;15.13;9.82;;;15.80;87.20;;;;;;5000235;28;20030;-83
2021/04/21 12:01:09;;;;;;;17.27;11.20;;;15.80;88.20;;;;;;5011839;28;20063;-83
2021/04/21 12:03:45;;;;;;;15.68;10.55;;;15.80;87.40;;;;;;5011831;28;20172;-83
2021/04/21 12:06:18;;;;;;;15.43;11.02;;;15.80;88.10;;;;;;5013305;28;20040;-83
2021/04/21 12:08:49;;;;;;;18.08;10.68;;;15.80;86.40;;;;;;5014730;28;20026;-83
2021/04/21 12:11:26;;;;;;;18.80;11.20;;;15.80;87.50;;;;;;5015427;28;20485;-83
2021/04/21 12:13:52;;;;;;;16.13;10.93;;;15.70;85.40;;;;;;5015397;28;20028;-83
2021/04/21 12:16:20;;;;;;;17.95;10.02;;;15.80;83.50;;;;;;5015308;28;20389;-83
2021/04/21 12:18:50;;;;;;;17.25;10.95;;;15.80;86.80;;;;;;5016537;28;20022;-83
2021/04/21 12:21:16;;;;;;;18.73;11.82;;;15.90;86.70;;;;;;5015289;28;20385;-82
2021/04/21 12:23:44;;;;;;;17.67;12.45;;;15.90;88.80;;;;;;5015142;28;20113;-83
2021/04/21 12:26:21;;;;;;;18.25;11.25;;;15.90;89.30;;;;;;5016458;28;20046;-83
2021/04/21 12:28:57;;;;;;;15.90;11.80;;;16.00;88.10;;;;;;5016333;28;20482;-82
2021/04/21 12:31:24;;;;;;;18.42;11.55;;;16.00;87.80;;;;;;5016648;28;20429;-83
2021/04/21 12:33:53;;;;;;;16.33;10.38;;;16.00;89.10;;;;;;5016274;28;20056;-83
2021/04/21 12:36:21;;;;;;;17.92;10.95;;;16.20;89.10;;;;;;5014957;28;20120;-83
2021/04/21 12:39:07;;;;;;;17.80;11.98;;;16.40;87.80;;;;;;5016045;28;20026;-82
2021/04/21 12:41:35;;;;;;;18.02;11.20;;;16.50;86.40;;;;;;5016124;28;20025;-83
2021/04/21 12:44:23;;;;;;;16.58;11.30;;;17.30;86.50;;;;;;5021841;28;20042;-83
2021/04/21 12:46:52;;;;;;;14.70;10.63;;;18.70;82.50;;;;;;5035932;28;20029;-83
2021/04/21 12:49:39;;;;;;;13.90;10.18;;;19.70;77.70;;;;;;5035985;28;20022;-83
2021/04/21 12:52:07;;;;;;;16.30;11.48;;;20.70;73.90;;;;;;5035728;28;20543;-84
2021/04/21 12:54:37;;;;;;;14.55;10.32;;;21.50;70.00;;;;;;5017951;28;20028;-84
2021/04/21 12:57:05;;;;;;;15.65;11.02;;;21.90;66.90;;;;;;5017787;28;20108;-83
2021/04/21 12:59:48;;;;;;;21.60;11.63;;;22.40;78.40;;;;;;5035472;28;20068;-83
2021/04/21 13:02:16;;;;;;;17.33;10.27;;;22.20;98.80;;;;;;5035769;28;20492;-83
2021/04/21 13:04:47;;;;;;;14.00;9.68;;;22.50;60.80;;;;;;5017716;28;20018;-84
2021/04/21 13:07:22;;;;;;;14.10;9.20;;;22.90;59.60;;;;;;5035698;28;20447;-84
2021/04/21 13:09:49;;;;;;;14.90;9.57;;;23.20;59.10;;;;;;5035331;28;20385;-84
2021/04/21 13:12:22;;;;;;;11.00;9.27;;;22.30;58.80;;;;;;5017504;28;20072;-83
2021/04/21 13:14:50;;;;;;;12.35;10.00;;;21.10;59.70;;;;;;5035161;28;20443;-83